sensor_id;sensor_type;location;lat;lon;timestamp;P1;durP1;ratioP1;P2;durP2;ratioP2
68577;SDS011;61668;45.388;11.784;2023-04-03T00:00:23;16.50;;;8.30;;
68577;SDS011;61668;45.388;11.784;2023-04-03T00:02:49;17.90;;;9.10;;
68577;SDS011;61668;45.388;11.784;2023-04-03T00:05:14;20.70;;;10.10;;
68577;SDS011;61668;45.388;11.784;2023-04-03T00:07:40;18.10;;;9.40;;
68577;SDS011;61668;45.388;11.784;2023-04-03T00:10:06;17.40;;;9.30;;
68577;SDS011;61668;45.388;11.784;2023-04-03T00:12:32;17.80;;;9.20;;
68577;SDS011;61668;45.388;11.784;2023-04-03T00:14:58;18.60;;;9.70;;
68577;SDS011;61668;45.388;11.784;2023-04-03T00:17:24;17.50;;;8.90;;
68577;SDS011;61668;45.388;11.784;2023-04-03T00:19:50;17.70;;;9.00;;
68577;SDS011;61668;45.388;11.784;2023-04-03T00:22:16;19.20;;;8.40;;
68577;SDS011;61668;45.388;11.784;2023-04-03T00:24:41;18.80;;;9.80;;
68577;SDS011;61668;45.388;11.784;2023-04-03T00:27:07;18.50;;;9.40;;
68577;SDS011;61668;45.388;11.784;2023-04-03T00:29:32;20.20;;;10.20;;
68577;SDS011;61668;45.388;11.784;2023-04-03T00:31:58;20.20;;;10.10;;
68577;SDS011;61668;45.388;11.784;2023-04-03T00:34:25;19.50;;;9.50;;
68577;SDS011;61668;45.388;11.784;2023-04-03T00:36:50;20.50;;;9.90;;
68577;SDS011;61668;45.388;11.784;2023-04-03T00:39:16;20.30;;;9.90;;
68577;SDS011;61668;45.388;11.784;2023-04-03T00:41:42;19.80;;;10.00;;
68577;SDS011;61668;45.388;11.784;2023-04-03T00:47:04;19.10;;;10.00;;
68577;SDS011;61668;45.388;11.784;2023-04-03T00:49:31;20.40;;;11.20;;
68577;SDS011;61668;45.388;11.784;2023-04-03T00:51:57;21.10;;;10.10;;
68577;SDS011;61668;45.388;11.784;2023-04-03T00:54:25;21.10;;;10.10;;
68577;SDS011;61668;45.388;11.784;2023-04-03T00:56:51;21.20;;;11.00;;
68577;SDS011;61668;45.388;11.784;2023-04-03T00:59:24;20.20;;;10.20;;
68577;SDS011;61668;45.388;11.784;2023-04-03T01:01:53;22.20;;;10.70;;
68577;SDS011;61668;45.388;11.784;2023-04-03T01:04:43;17.60;;;10.20;;
68577;SDS011;61668;45.388;11.784;2023-04-03T01:07:10;20.30;;;10.80;;
68577;SDS011;61668;45.388;11.784;2023-04-03T01:09:43;20.80;;;10.60;;
68577;SDS011;61668;45.388;11.784;2023-04-03T01:12:20;22.00;;;11.80;;
68577;SDS011;61668;45.388;11.784;2023-04-03T01:14:51;21.60;;;11.80;;
68577;SDS011;61668;45.388;11.784;2023-04-03T01:17:43;20.50;;;11.40;;
68577;SDS011;61668;45.388;11.784;2023-04-03T01:25:39;16.00;;;8.00;;
68577;SDS011;61668;45.388;11.784;2023-04-03T01:28:05;16.80;;;8.50;;
68577;SDS011;61668;45.388;11.784;2023-04-03T01:30:39;15.90;;;7.90;;
68577;SDS011;61668;45.388;11.784;2023-04-03T01:33:08;14.80;;;7.20;;
68577;SDS011;61668;45.388;11.784;2023-04-03T01:35:34;15.50;;;6.90;;
68577;SDS011;61668;45.388;11.784;2023-04-03T01:37:59;15.10;;;6.40;;
68577;SDS011;61668;45.388;11.784;2023-04-03T01:40:25;15.90;;;7.50;;
68577;SDS011;61668;45.388;11.784;2023-04-03T01:42:51;18.10;;;7.40;;
68577;SDS011;61668;45.388;11.784;2023-04-03T01:45:17;16.30;;;6.80;;
68577;SDS011;61668;45.388;11.784;2023-04-03T01:47:42;17.80;;;7.20;;
68577;SDS011;61668;45.388;11.784;2023-04-03T01:50:08;14.00;;;6.40;;
68577;SDS011;61668;45.388;11.784;2023-04-03T01:52:34;14.20;;;6.60;;
68577;SDS011;61668;45.388;11.784;2023-04-03T01:54:59;15.70;;;7.30;;
68577;SDS011;61668;45.388;11.784;2023-04-03T01:57:25;15.60;;;7.30;;
68577;SDS011;61668;45.388;11.784;2023-04-03T01:59:50;16.50;;;8.00;;
68577;SDS011;61668;45.388;11.784;2023-04-03T02:02:17;13.70;;;7.50;;
68577;SDS011;61668;45.388;11.784;2023-04-03T02:04:44;16.20;;;8.00;;
68577;SDS011;61668;45.388;11.784;2023-04-03T02:07:09;17.30;;;7.60;;
68577;SDS011;61668;45.388;11.784;2023-04-03T02:09:35;16.30;;;6.90;;
68577;SDS011;61668;45.388;11.784;2023-04-03T02:12:01;16.90;;;8.00;;
68577;SDS011;61668;45.388;11.784;2023-04-03T02:14:26;15.10;;;7.30;;
68577;SDS011;61668;45.388;11.784;2023-04-03T02:16:53;15.60;;;7.50;;
68577;SDS011;61668;45.388;11.784;2023-04-03T02:19:18;16.00;;;8.30;;
68577;SDS011;61668;45.388;11.784;2023-04-03T02:21:44;16.80;;;9.70;;
68577;SDS011;61668;45.388;11.784;2023-04-03T02:24:10;18.80;;;9.10;;
68577;SDS011;61668;45.388;11.784;2023-04-03T02:26:35;18.00;;;8.90;;
68577;SDS011;61668;45.388;11.784;2023-04-03T02:29:01;20.40;;;10.60;;
68577;SDS011;61668;45.388;11.784;2023-04-03T02:31:27;20.00;;;10.80;;
68577;SDS011;61668;45.388;11.784;2023-04-03T02:33:53;18.40;;;10.00;;
68577;SDS011;61668;45.388;11.784;2023-04-03T02:36:19;20.60;;;10.50;;
68577;SDS011;61668;45.388;11.784;2023-04-03T02:38:45;20.10;;;10.40;;
68577;SDS011;61668;45.388;11.784;2023-04-03T02:41:11;23.10;;;11.70;;
68577;SDS011;61668;45.388;11.784;2023-04-03T02:43:38;22.30;;;12.60;;
68577;SDS011;61668;45.388;11.784;2023-04-03T02:46:04;21.60;;;13.10;;
68577;SDS011;61668;45.388;11.784;2023-04-03T02:48:30;22.00;;;13.40;;
68577;SDS011;61668;45.388;11.784;2023-04-03T02:50:57;23.90;;;13.40;;
68577;SDS011;61668;45.388;11.784;2023-04-03T02:53:23;24.90;;;14.00;;
68577;SDS011;61668;45.388;11.784;2023-04-03T02:55:49;21.70;;;13.10;;
68577;SDS011;61668;45.388;11.784;2023-04-03T02:58:15;27.40;;;14.30;;
68577;SDS011;61668;45.388;11.784;2023-04-03T03:00:41;24.50;;;14.10;;
68577;SDS011;61668;45.388;11.784;2023-04-03T03:03:06;25.00;;;14.10;;
68577;SDS011;61668;45.388;11.784;2023-04-03T03:05:32;27.60;;;14.10;;
68577;SDS011;61668;45.388;11.784;2023-04-03T03:07:58;22.30;;;13.50;;
68577;SDS011;61668;45.388;11.784;2023-04-03T03:10:23;27.90;;;13.90;;
68577;SDS011;61668;45.388;11.784;2023-04-03T03:12:49;25.50;;;13.70;;
68577;SDS011;61668;45.388;11.784;2023-04-03T03:15:15;21.60;;;13.20;;
68577;SDS011;61668;45.388;11.784;2023-04-03T03:17:40;22.20;;;13.90;;
68577;SDS011;61668;45.388;11.784;2023-04-03T03:20:07;24.40;;;13.40;;
68577;SDS011;61668;45.388;11.784;2023-04-03T03:22:35;23.70;;;13.80;;
68577;SDS011;61668;45.388;11.784;2023-04-03T03:25:02;25.70;;;14.60;;
68577;SDS011;61668;45.388;11.784;2023-04-03T03:27:28;28.40;;;14.60;;
68577;SDS011;61668;45.388;11.784;2023-04-03T03:29:54;29.20;;;14.70;;
68577;SDS011;61668;45.388;11.784;2023-04-03T03:32:20;24.80;;;14.70;;
68577;SDS011;61668;45.388;11.784;2023-04-03T03:34:45;28.50;;;14.10;;
68577;SDS011;61668;45.388;11.784;2023-04-03T03:37:11;27.20;;;14.10;;
68577;SDS011;61668;45.388;11.784;2023-04-03T03:39:37;22.40;;;13.50;;
68577;SDS011;61668;45.388;11.784;2023-04-03T03:42:02;25.10;;;13.40;;
68577;SDS011;61668;45.388;11.784;2023-04-03T03:44:28;23.40;;;13.60;;
68577;SDS011;61668;45.388;11.784;2023-04-03T03:46:54;22.40;;;13.00;;
68577;SDS011;61668;45.388;11.784;2023-04-03T03:49:21;27.90;;;14.70;;
68577;SDS011;61668;45.388;11.784;2023-04-03T03:51:47;24.50;;;12.90;;
68577;SDS011;61668;45.388;11.784;2023-04-03T03:54:13;25.30;;;14.10;;
68577;SDS011;61668;45.388;11.784;2023-04-03T03:56:39;23.30;;;13.80;;
68577;SDS011;61668;45.388;11.784;2023-04-03T03:59:05;22.00;;;13.20;;
68577;SDS011;61668;45.388;11.784;2023-04-03T04:01:31;22.70;;;14.10;;
68577;SDS011;61668;45.388;11.784;2023-04-03T04:03:57;23.60;;;13.70;;
68577;SDS011;61668;45.388;11.784;2023-04-03T04:06:22;20.10;;;10.80;;
68577;SDS011;61668;45.388;11.784;2023-04-03T04:08:48;17.10;;;7.50;;
68577;SDS011;61668;45.388;11.784;2023-04-03T04:11:14;19.00;;;8.40;;
68577;SDS011;61668;45.388;11.784;2023-04-03T04:13:40;13.40;;;4.90;;
68577;SDS011;61668;45.388;11.784;2023-04-03T04:16:06;10.40;;;4.10;;
68577;SDS011;61668;45.388;11.784;2023-04-03T04:18:33;9.20;;;2.30;;
68577;SDS011;61668;45.388;11.784;2023-04-03T04:20:59;8.10;;;1.30;;
68577;SDS011;61668;45.388;11.784;2023-04-03T04:23:24;6.80;;;0.90;;
68577;SDS011;61668;45.388;11.784;2023-04-03T04:25:50;6.90;;;0.80;;
68577;SDS011;61668;45.388;11.784;2023-04-03T04:28:17;5.00;;;0.60;;
68577;SDS011;61668;45.388;11.784;2023-04-03T04:30:42;5.80;;;0.50;;
68577;SDS011;61668;45.388;11.784;2023-04-03T04:33:09;6.30;;;0.60;;
68577;SDS011;61668;45.388;11.784;2023-04-03T04:35:35;8.20;;;0.70;;
68577;SDS011;61668;45.388;11.784;2023-04-03T04:38:01;5.00;;;0.40;;
68577;SDS011;61668;45.388;11.784;2023-04-03T04:40:26;5.40;;;0.70;;
68577;SDS011;61668;45.388;11.784;2023-04-03T04:42:52;7.70;;;0.50;;
68577;SDS011;61668;45.388;11.784;2023-04-03T04:45:18;6.80;;;1.40;;
68577;SDS011;61668;45.388;11.784;2023-04-03T04:47:44;12.70;;;3.10;;
68577;SDS011;61668;45.388;11.784;2023-04-03T04:50:10;11.60;;;3.60;;
68577;SDS011;61668;45.388;11.784;2023-04-03T04:52:37;11.20;;;3.60;;
68577;SDS011;61668;45.388;11.784;2023-04-03T04:55:03;12.60;;;5.90;;
68577;SDS011;61668;45.388;11.784;2023-04-03T04:57:30;12.00;;;5.00;;
68577;SDS011;61668;45.388;11.784;2023-04-03T04:59:56;11.20;;;3.80;;
68577;SDS011;61668;45.388;11.784;2023-04-03T05:02:21;10.50;;;3.30;;
68577;SDS011;61668;45.388;11.784;2023-04-03T05:04:47;11.90;;;3.00;;
68577;SDS011;61668;45.388;11.784;2023-04-03T05:07:15;15.80;;;4.00;;
68577;SDS011;61668;45.388;11.784;2023-04-03T05:09:41;12.20;;;4.40;;
68577;SDS011;61668;45.388;11.784;2023-04-03T05:24:50;9.20;;;1.80;;
68577;SDS011;61668;45.388;11.784;2023-04-03T05:27:15;8.60;;;1.90;;
68577;SDS011;61668;45.388;11.784;2023-04-03T05:29:42;7.10;;;1.10;;
68577;SDS011;61668;45.388;11.784;2023-04-03T05:32:10;8.20;;;1.40;;
68577;SDS011;61668;45.388;11.784;2023-04-03T05:34:36;6.70;;;1.00;;
68577;SDS011;61668;45.388;11.784;2023-04-03T05:37:02;5.60;;;0.70;;
68577;SDS011;61668;45.388;11.784;2023-04-03T05:39:30;5.50;;;0.50;;
68577;SDS011;61668;45.388;11.784;2023-04-03T05:41:57;6.20;;;0.60;;
68577;SDS011;61668;45.388;11.784;2023-04-03T05:44:22;6.40;;;0.70;;
68577;SDS011;61668;45.388;11.784;2023-04-03T05:46:48;7.00;;;0.70;;
68577;SDS011;61668;45.388;11.784;2023-04-03T05:49:14;7.20;;;0.90;;
68577;SDS011;61668;45.388;11.784;2023-04-03T05:51:40;7.20;;;1.10;;
68577;SDS011;61668;45.388;11.784;2023-04-03T05:56:43;6.80;;;0.80;;
68577;SDS011;61668;45.388;11.784;2023-04-03T05:59:09;6.00;;;0.70;;
68577;SDS011;61668;45.388;11.784;2023-04-03T06:01:35;7.30;;;1.00;;
68577;SDS011;61668;45.388;11.784;2023-04-03T06:04:01;7.20;;;1.20;;
68577;SDS011;61668;45.388;11.784;2023-04-03T06:06:47;6.00;;;0.60;;
68577;SDS011;61668;45.388;11.784;2023-04-03T06:09:13;5.80;;;0.50;;
68577;SDS011;61668;45.388;11.784;2023-04-03T06:11:40;7.00;;;0.90;;
68577;SDS011;61668;45.388;11.784;2023-04-03T06:14:07;9.90;;;0.70;;
68577;SDS011;61668;45.388;11.784;2023-04-03T06:16:34;8.40;;;0.60;;
68577;SDS011;61668;45.388;11.784;2023-04-03T06:19:00;6.30;;;0.70;;
68577;SDS011;61668;45.388;11.784;2023-04-03T06:21:26;6.60;;;0.90;;
68577;SDS011;61668;45.388;11.784;2023-04-03T06:23:52;6.00;;;0.70;;
68577;SDS011;61668;45.388;11.784;2023-04-03T06:26:18;5.40;;;0.60;;
68577;SDS011;61668;45.388;11.784;2023-04-03T06:28:43;6.70;;;0.90;;
68577;SDS011;61668;45.388;11.784;2023-04-03T06:31:09;5.40;;;1.30;;
68577;SDS011;61668;45.388;11.784;2023-04-03T06:33:35;6.60;;;1.10;;
68577;SDS011;61668;45.388;11.784;2023-04-03T06:36:05;5.60;;;1.20;;
68577;SDS011;61668;45.388;11.784;2023-04-03T06:38:33;5.70;;;0.70;;
68577;SDS011;61668;45.388;11.784;2023-04-03T06:40:59;6.50;;;0.70;;
68577;SDS011;61668;45.388;11.784;2023-04-03T06:43:25;7.60;;;0.90;;
68577;SDS011;61668;45.388;11.784;2023-04-03T06:45:51;6.30;;;0.60;;
68577;SDS011;61668;45.388;11.784;2023-04-03T06:48:17;7.20;;;0.90;;
68577;SDS011;61668;45.388;11.784;2023-04-03T06:50:43;4.70;;;0.70;;
68577;SDS011;61668;45.388;11.784;2023-04-03T06:53:11;6.60;;;0.70;;
68577;SDS011;61668;45.388;11.784;2023-04-03T06:55:37;7.50;;;1.10;;
68577;SDS011;61668;45.388;11.784;2023-04-03T06:58:03;6.20;;;1.00;;
68577;SDS011;61668;45.388;11.784;2023-04-03T07:00:30;5.50;;;0.90;;
68577;SDS011;61668;45.388;11.784;2023-04-03T07:02:56;6.60;;;0.80;;
68577;SDS011;61668;45.388;11.784;2023-04-03T07:05:23;6.00;;;0.70;;
68577;SDS011;61668;45.388;11.784;2023-04-03T07:07:50;5.20;;;0.90;;
68577;SDS011;61668;45.388;11.784;2023-04-03T07:10:17;6.90;;;0.80;;
68577;SDS011;61668;45.388;11.784;2023-04-03T07:12:42;5.80;;;0.60;;
68577;SDS011;61668;45.388;11.784;2023-04-03T07:15:09;6.40;;;0.90;;
68577;SDS011;61668;45.388;11.784;2023-04-03T07:17:36;7.90;;;0.70;;
68577;SDS011;61668;45.388;11.784;2023-04-03T07:20:03;7.50;;;1.00;;
68577;SDS011;61668;45.388;11.784;2023-04-03T07:22:29;7.20;;;0.90;;
68577;SDS011;61668;45.388;11.784;2023-04-03T07:24:55;6.30;;;0.80;;
68577;SDS011;61668;45.388;11.784;2023-04-03T07:27:21;5.30;;;0.90;;
68577;SDS011;61668;45.388;11.784;2023-04-03T07:29:47;5.60;;;0.60;;
68577;SDS011;61668;45.388;11.784;2023-04-03T07:32:14;7.70;;;0.60;;
68577;SDS011;61668;45.388;11.784;2023-04-03T07:34:41;5.60;;;1.10;;
68577;SDS011;61668;45.388;11.784;2023-04-03T07:37:07;6.60;;;0.70;;
68577;SDS011;61668;45.388;11.784;2023-04-03T07:39:34;6.80;;;0.80;;
68577;SDS011;61668;45.388;11.784;2023-04-03T07:42:00;5.60;;;0.70;;
68577;SDS011;61668;45.388;11.784;2023-04-03T07:44:27;6.80;;;0.90;;
68577;SDS011;61668;45.388;11.784;2023-04-03T07:46:53;8.40;;;1.10;;
68577;SDS011;61668;45.388;11.784;2023-04-03T07:49:21;5.20;;;0.60;;
68577;SDS011;61668;45.388;11.784;2023-04-03T07:51:49;6.20;;;0.70;;
68577;SDS011;61668;45.388;11.784;2023-04-03T07:54:16;5.70;;;0.60;;
68577;SDS011;61668;45.388;11.784;2023-04-03T07:56:42;5.10;;;0.60;;
68577;SDS011;61668;45.388;11.784;2023-04-03T07:59:09;7.20;;;0.80;;
68577;SDS011;61668;45.388;11.784;2023-04-03T08:01:35;7.30;;;0.50;;
68577;SDS011;61668;45.388;11.784;2023-04-03T08:04:01;7.90;;;1.00;;
68577;SDS011;61668;45.388;11.784;2023-04-03T08:06:27;6.70;;;0.60;;
68577;SDS011;61668;45.388;11.784;2023-04-03T08:08:55;7.90;;;0.60;;
68577;SDS011;61668;45.388;11.784;2023-04-03T08:11:21;6.20;;;0.50;;
68577;SDS011;61668;45.388;11.784;2023-04-03T08:13:48;7.30;;;0.70;;
68577;SDS011;61668;45.388;11.784;2023-04-03T08:16:20;7.40;;;0.80;;
68577;SDS011;61668;45.388;11.784;2023-04-03T08:18:48;6.80;;;0.60;;
68577;SDS011;61668;45.388;11.784;2023-04-03T08:21:14;7.60;;;1.10;;
68577;SDS011;61668;45.388;11.784;2023-04-03T08:23:41;8.50;;;0.50;;
68577;SDS011;61668;45.388;11.784;2023-04-03T08:26:11;6.30;;;0.70;;
68577;SDS011;61668;45.388;11.784;2023-04-03T08:28:39;9.70;;;1.20;;
68577;SDS011;61668;45.388;11.784;2023-04-03T08:31:07;7.50;;;0.60;;
68577;SDS011;61668;45.388;11.784;2023-04-03T08:33:38;10.70;;;0.80;;
68577;SDS011;61668;45.388;11.784;2023-04-03T08:36:06;7.20;;;0.50;;
68577;SDS011;61668;45.388;11.784;2023-04-03T08:38:34;9.90;;;1.10;;
68577;SDS011;61668;45.388;11.784;2023-04-03T08:47:17;8.00;;;0.70;;
68577;SDS011;61668;45.388;11.784;2023-04-03T08:49:25;7.40;;;0.60;;
68577;SDS011;61668;45.388;11.784;2023-04-03T08:51:54;9.40;;;1.10;;
68577;SDS011;61668;45.388;11.784;2023-04-03T08:54:34;8.80;;;0.60;;
68577;SDS011;61668;45.388;11.784;2023-04-03T08:57:04;8.90;;;0.70;;
68577;SDS011;61668;45.388;11.784;2023-04-03T08:59:34;7.40;;;0.70;;
68577;SDS011;61668;45.388;11.784;2023-04-03T09:02:17;9.90;;;1.00;;
68577;SDS011;61668;45.388;11.784;2023-04-03T09:05:35;7.60;;;0.80;;
68577;SDS011;61668;45.388;11.784;2023-04-03T09:08:50;9.50;;;0.70;;
68577;SDS011;61668;45.388;11.784;2023-04-03T09:16:58;6.40;;;0.40;;
68577;SDS011;61668;45.388;11.784;2023-04-03T09:20:09;6.60;;;0.60;;
68577;SDS011;61668;45.388;11.784;2023-04-03T09:22:35;8.00;;;0.80;;
68577;SDS011;61668;45.388;11.784;2023-04-03T09:27:39;4.80;;;0.50;;
68577;SDS011;61668;45.388;11.784;2023-04-03T09:30:06;6.20;;;0.60;;
68577;SDS011;61668;45.388;11.784;2023-04-03T09:32:37;6.60;;;0.60;;
68577;SDS011;61668;45.388;11.784;2023-04-03T09:38:17;9.30;;;1.00;;
68577;SDS011;61668;45.388;11.784;2023-04-03T09:40:48;7.00;;;0.60;;
68577;SDS011;61668;45.388;11.784;2023-04-03T09:43:31;8.20;;;0.60;;
68577;SDS011;61668;45.388;11.784;2023-04-03T09:48:55;7.20;;;0.60;;
68577;SDS011;61668;45.388;11.784;2023-04-03T09:51:27;6.20;;;1.10;;
68577;SDS011;61668;45.388;11.784;2023-04-03T09:53:54;7.20;;;0.60;;
68577;SDS011;61668;45.388;11.784;2023-04-03T09:56:26;6.90;;;0.80;;
68577;SDS011;61668;45.388;11.784;2023-04-03T10:01:58;6.80;;;0.60;;
68577;SDS011;61668;45.388;11.784;2023-04-03T10:04:25;8.30;;;0.90;;
68577;SDS011;61668;45.388;11.784;2023-04-03T10:07:32;4.90;;;0.30;;
68577;SDS011;61668;45.388;11.784;2023-04-03T10:10:15;4.90;;;0.70;;
68577;SDS011;61668;45.388;11.784;2023-04-03T10:12:43;4.50;;;0.30;;
68577;SDS011;61668;45.388;11.784;2023-04-03T10:15:16;9.70;;;1.00;;
68577;SDS011;61668;45.388;11.784;2023-04-03T10:18:02;8.60;;;0.50;;
68577;SDS011;61668;45.388;11.784;2023-04-03T10:20:51;6.70;;;0.70;;
68577;SDS011;61668;45.388;11.784;2023-04-03T10:23:25;7.20;;;0.50;;
68577;SDS011;61668;45.388;11.784;2023-04-03T10:26:13;7.70;;;0.90;;
68577;SDS011;61668;45.388;11.784;2023-04-03T10:34:39;8.30;;;0.50;;
68577;SDS011;61668;45.388;11.784;2023-04-03T10:37:29;6.80;;;0.60;;
68577;SDS011;61668;45.388;11.784;2023-04-03T10:40:10;6.80;;;0.60;;
68577;SDS011;61668;45.388;11.784;2023-04-03T10:48:11;8.00;;;1.20;;
68577;SDS011;61668;45.388;11.784;2023-04-03T10:53:49;7.30;;;0.70;;
68577;SDS011;61668;45.388;11.784;2023-04-03T10:56:39;10.40;;;1.10;;
68577;SDS011;61668;45.388;11.784;2023-04-03T11:01:55;7.20;;;0.80;;
68577;SDS011;61668;45.388;11.784;2023-04-03T11:04:35;7.00;;;0.60;;
68577;SDS011;61668;45.388;11.784;2023-04-03T11:07:10;10.00;;;0.70;;
68577;SDS011;61668;45.388;11.784;2023-04-03T11:09:42;5.70;;;0.40;;
68577;SDS011;61668;45.388;11.784;2023-04-03T11:14:38;6.00;;;0.50;;
68577;SDS011;61668;45.388;11.784;2023-04-03T11:20:01;7.10;;;0.40;;
68577;SDS011;61668;45.388;11.784;2023-04-03T11:22:42;7.30;;;1.00;;
68577;SDS011;61668;45.388;11.784;2023-04-03T11:30:27;7.10;;;0.50;;
68577;SDS011;61668;45.388;11.784;2023-04-03T11:33:37;7.10;;;0.50;;
68577;SDS011;61668;45.388;11.784;2023-04-03T11:36:47;8.90;;;0.80;;
68577;SDS011;61668;45.388;11.784;2023-04-03T11:41:53;8.60;;;1.00;;
68577;SDS011;61668;45.388;11.784;2023-04-03T11:44:31;7.10;;;0.80;;
68577;SDS011;61668;45.388;11.784;2023-04-03T11:47:00;7.30;;;0.70;;
68577;SDS011;61668;45.388;11.784;2023-04-03T11:49:55;6.90;;;1.10;;
68577;SDS011;61668;45.388;11.784;2023-04-03T12:00:50;8.20;;;1.10;;
68577;SDS011;61668;45.388;11.784;2023-04-03T12:14:01;8.60;;;1.70;;
68577;SDS011;61668;45.388;11.784;2023-04-03T12:27:14;8.30;;;1.10;;
68577;SDS011;61668;45.388;11.784;2023-04-03T12:35:27;7.60;;;1.10;;
68577;SDS011;61668;45.388;11.784;2023-04-03T12:38:25;6.60;;;0.70;;
68577;SDS011;61668;45.388;11.784;2023-04-03T12:41:11;7.30;;;0.60;;
68577;SDS011;61668;45.388;11.784;2023-04-03T12:46:39;6.10;;;0.70;;
68577;SDS011;61668;45.388;11.784;2023-04-03T12:49:23;8.10;;;1.10;;
68577;SDS011;61668;45.388;11.784;2023-04-03T12:51:55;5.50;;;0.40;;
68577;SDS011;61668;45.388;11.784;2023-04-03T12:54:38;6.70;;;0.60;;
68577;SDS011;61668;45.388;11.784;2023-04-03T12:59:46;5.30;;;0.60;;
68577;SDS011;61668;45.388;11.784;2023-04-03T13:02:21;5.10;;;0.40;;
68577;SDS011;61668;45.388;11.784;2023-04-03T13:04:51;5.20;;;0.60;;
68577;SDS011;61668;45.388;11.784;2023-04-03T13:10:15;5.90;;;0.70;;
68577;SDS011;61668;45.388;11.784;2023-04-03T13:12:53;5.80;;;0.40;;
68577;SDS011;61668;45.388;11.784;2023-04-03T13:15:41;7.80;;;0.70;;
68577;SDS011;61668;45.388;11.784;2023-04-03T13:21:06;5.00;;;0.40;;
68577;SDS011;61668;45.388;11.784;2023-04-03T13:24:01;5.70;;;0.50;;
68577;SDS011;61668;45.388;11.784;2023-04-03T13:26:30;5.10;;;0.40;;
68577;SDS011;61668;45.388;11.784;2023-04-03T13:29:01;8.70;;;0.70;;
68577;SDS011;61668;45.388;11.784;2023-04-03T13:31:37;5.60;;;0.60;;
68577;SDS011;61668;45.388;11.784;2023-04-03T13:34:10;5.90;;;0.40;;
68577;SDS011;61668;45.388;11.784;2023-04-03T13:36:54;9.00;;;0.70;;
68577;SDS011;61668;45.388;11.784;2023-04-03T13:39:30;6.50;;;0.50;;
68577;SDS011;61668;45.388;11.784;2023-04-03T13:42:00;6.20;;;0.60;;
68577;SDS011;61668;45.388;11.784;2023-04-03T13:44:36;7.10;;;0.80;;
68577;SDS011;61668;45.388;11.784;2023-04-03T13:49:36;5.50;;;0.60;;
68577;SDS011;61668;45.388;11.784;2023-04-03T13:52:30;8.10;;;0.60;;
68577;SDS011;61668;45.388;11.784;2023-04-03T13:55:27;6.00;;;0.60;;
68577;SDS011;61668;45.388;11.784;2023-04-03T14:00:55;8.40;;;0.80;;
68577;SDS011;61668;45.388;11.784;2023-04-03T14:03:33;6.70;;;0.80;;
68577;SDS011;61668;45.388;11.784;2023-04-03T14:06:15;5.40;;;0.50;;
68577;SDS011;61668;45.388;11.784;2023-04-03T14:08:43;7.50;;;0.30;;
68577;SDS011;61668;45.388;11.784;2023-04-03T14:11:22;6.90;;;0.50;;
68577;SDS011;61668;45.388;11.784;2023-04-03T14:13:56;6.60;;;0.50;;
68577;SDS011;61668;45.388;11.784;2023-04-03T14:16:26;5.20;;;0.50;;
68577;SDS011;61668;45.388;11.784;2023-04-03T14:18:54;6.20;;;0.60;;
68577;SDS011;61668;45.388;11.784;2023-04-03T14:21:21;6.50;;;0.60;;
68577;SDS011;61668;45.388;11.784;2023-04-03T14:23:48;5.30;;;0.40;;
68577;SDS011;61668;45.388;11.784;2023-04-03T14:26:19;7.70;;;0.80;;
68577;SDS011;61668;45.388;11.784;2023-04-03T14:28:49;5.40;;;0.70;;
68577;SDS011;61668;45.388;11.784;2023-04-03T14:31:18;4.10;;;0.30;;
68577;SDS011;61668;45.388;11.784;2023-04-03T14:33:45;4.90;;;0.40;;
68577;SDS011;61668;45.388;11.784;2023-04-03T14:36:16;6.40;;;0.50;;
68577;SDS011;61668;45.388;11.784;2023-04-03T14:38:48;4.80;;;0.50;;
68577;SDS011;61668;45.388;11.784;2023-04-03T14:41:17;4.10;;;0.40;;
68577;SDS011;61668;45.388;11.784;2023-04-03T14:43:45;4.40;;;0.30;;
68577;SDS011;61668;45.388;11.784;2023-04-03T14:46:17;4.80;;;0.50;;
68577;SDS011;61668;45.388;11.784;2023-04-03T14:49:13;5.90;;;0.70;;
68577;SDS011;61668;45.388;11.784;2023-04-03T14:51:40;4.50;;;0.30;;
68577;SDS011;61668;45.388;11.784;2023-04-03T14:54:15;5.80;;;0.60;;
68577;SDS011;61668;45.388;11.784;2023-04-03T14:56:44;4.80;;;0.40;;
68577;SDS011;61668;45.388;11.784;2023-04-03T14:59:14;6.00;;;0.50;;
68577;SDS011;61668;45.388;11.784;2023-04-03T15:01:40;5.40;;;0.40;;
68577;SDS011;61668;45.388;11.784;2023-04-03T15:04:19;4.70;;;0.40;;
68577;SDS011;61668;45.388;11.784;2023-04-03T15:06:47;4.20;;;0.40;;
68577;SDS011;61668;45.388;11.784;2023-04-03T15:09:23;5.50;;;0.50;;
68577;SDS011;61668;45.388;11.784;2023-04-03T15:11:53;4.50;;;0.40;;
68577;SDS011;61668;45.388;11.784;2023-04-03T15:14:20;3.70;;;0.20;;
68577;SDS011;61668;45.388;11.784;2023-04-03T15:16:46;4.70;;;0.50;;
68577;SDS011;61668;45.388;11.784;2023-04-03T15:19:12;4.60;;;0.40;;
68577;SDS011;61668;45.388;11.784;2023-04-03T15:21:38;5.70;;;0.30;;
68577;SDS011;61668;45.388;11.784;2023-04-03T15:24:05;4.50;;;0.30;;
68577;SDS011;61668;45.388;11.784;2023-04-03T15:26:32;5.20;;;0.40;;
68577;SDS011;61668;45.388;11.784;2023-04-03T15:28:58;4.50;;;0.30;;
68577;SDS011;61668;45.388;11.784;2023-04-03T15:31:23;4.90;;;0.30;;
68577;SDS011;61668;45.388;11.784;2023-04-03T15:33:49;3.80;;;0.40;;
68577;SDS011;61668;45.388;11.784;2023-04-03T15:36:15;5.40;;;0.60;;
68577;SDS011;61668;45.388;11.784;2023-04-03T15:38:41;5.30;;;0.40;;
68577;SDS011;61668;45.388;11.784;2023-04-03T15:41:06;3.90;;;0.40;;
68577;SDS011;61668;45.388;11.784;2023-04-03T15:43:32;4.70;;;0.40;;
68577;SDS011;61668;45.388;11.784;2023-04-03T15:45:59;5.90;;;0.40;;
68577;SDS011;61668;45.388;11.784;2023-04-03T15:48:26;5.00;;;0.60;;
68577;SDS011;61668;45.388;11.784;2023-04-03T15:50:53;4.60;;;0.40;;
68577;SDS011;61668;45.388;11.784;2023-04-03T15:53:18;5.60;;;0.80;;
68577;SDS011;61668;45.388;11.784;2023-04-03T15:55:44;6.00;;;0.60;;
68577;SDS011;61668;45.388;11.784;2023-04-03T15:58:10;4.70;;;0.50;;
68577;SDS011;61668;45.388;11.784;2023-04-03T16:00:36;6.90;;;0.40;;
68577;SDS011;61668;45.388;11.784;2023-04-03T16:03:08;4.60;;;0.40;;
68577;SDS011;61668;45.388;11.784;2023-04-03T16:05:40;5.00;;;0.40;;
68577;SDS011;61668;45.388;11.784;2023-04-03T16:08:07;5.50;;;0.40;;
68577;SDS011;61668;45.388;11.784;2023-04-03T16:10:35;5.40;;;0.50;;
68577;SDS011;61668;45.388;11.784;2023-04-03T16:13:01;6.40;;;0.60;;
68577;SDS011;61668;45.388;11.784;2023-04-03T16:15:29;3.90;;;0.40;;
68577;SDS011;61668;45.388;11.784;2023-04-03T16:17:57;5.00;;;0.50;;
68577;SDS011;61668;45.388;11.784;2023-04-03T16:20:23;5.60;;;0.50;;
68577;SDS011;61668;45.388;11.784;2023-04-03T16:22:49;5.70;;;0.60;;
68577;SDS011;61668;45.388;11.784;2023-04-03T16:25:17;5.10;;;0.50;;
68577;SDS011;61668;45.388;11.784;2023-04-03T16:27:43;4.70;;;0.20;;
68577;SDS011;61668;45.388;11.784;2023-04-03T16:30:10;7.10;;;0.60;;
68577;SDS011;61668;45.388;11.784;2023-04-03T16:32:37;4.60;;;0.50;;
68577;SDS011;61668;45.388;11.784;2023-04-03T16:35:04;4.90;;;0.50;;
68577;SDS011;61668;45.388;11.784;2023-04-03T16:37:31;6.60;;;1.00;;
68577;SDS011;61668;45.388;11.784;2023-04-03T16:39:56;3.70;;;0.40;;
68577;SDS011;61668;45.388;11.784;2023-04-03T16:42:24;5.30;;;0.30;;
68577;SDS011;61668;45.388;11.784;2023-04-03T16:44:50;5.10;;;0.50;;
68577;SDS011;61668;45.388;11.784;2023-04-03T16:47:16;5.00;;;1.00;;
68577;SDS011;61668;45.388;11.784;2023-04-03T16:49:45;6.10;;;0.30;;
68577;SDS011;61668;45.388;11.784;2023-04-03T16:52:11;4.90;;;0.40;;